createdAt,value
2018-04-28T00:00:28.061Z,0.00
2018-04-28T00:01:28.173Z,0.00
2018-04-28T00:02:28.181Z,0.00
2018-04-28T00:03:28.261Z,0.00
2018-04-28T00:04:28.313Z,0.00
2018-04-28T00:05:28.389Z,0.00
2018-04-28T00:06:28.477Z,0.00
2018-04-28T00:07:28.514Z,0.00
2018-04-28T00:08:28.562Z,0.00
2018-04-28T00:09:28.629Z,0.00
2018-04-28T00:10:28.693Z,0.00
2018-04-28T00:11:28.793Z,0.00
2018-04-28T00:12:28.834Z,0.00
2018-04-28T00:13:28.885Z,0.00
2018-04-28T00:14:28.949Z,0.00
2018-04-28T00:15:29.018Z,0.00
2018-04-28T00:16:29.390Z,0.00
2018-04-28T00:17:29.146Z,0.00
2018-04-28T00:18:29.206Z,0.00
2018-04-28T00:19:29.274Z,0.00
2018-04-28T00:20:29.338Z,0.00
2018-04-28T00:21:29.411Z,0.00
2018-04-28T00:22:29.470Z,0.00
2018-04-28T00:23:29.526Z,0.00
2018-04-28T00:24:29.610Z,0.00
2018-04-28T00:25:29.666Z,0.00
2018-04-28T00:26:29.734Z,0.00
2018-04-28T00:27:29.802Z,0.00
2018-04-28T00:28:29.858Z,0.00
2018-04-28T00:29:29.914Z,0.00
2018-04-28T00:30:29.978Z,0.00
2018-04-28T00:31:30.055Z,0.00
2018-04-28T00:32:30.119Z,0.00
2018-04-28T00:33:30.175Z,0.00
2018-04-28T00:34:30.238Z,0.00
2018-04-28T00:35:30.311Z,0.00
2018-04-28T00:36:30.375Z,0.00
2018-04-28T00:37:30.435Z,0.00
2018-04-28T00:38:30.499Z,0.00
2018-04-28T00:39:30.563Z,0.00
2018-04-28T00:40:30.627Z,0.00
2018-04-28T00:41:30.687Z,0.00
2018-04-28T00:42:30.762Z,0.00
2018-04-28T00:43:30.819Z,0.00
2018-04-28T00:44:30.879Z,0.00
2018-04-28T00:45:30.947Z,0.00
2018-04-28T00:46:31.019Z,0.00
2018-04-28T00:47:31.083Z,0.00
2018-04-28T00:48:31.139Z,0.00
2018-04-28T00:49:31.207Z,0.00
2018-04-28T00:50:31.259Z,0.00
2018-04-28T00:51:31.336Z,0.00
2018-04-28T00:52:31.407Z,0.00
2018-04-28T00:53:31.455Z,0.00
2018-04-28T00:54:31.531Z,0.00
2018-04-28T00:55:31.591Z,0.00
2018-04-28T00:56:31.651Z,0.00
2018-04-28T00:57:31.731Z,0.00
2018-04-28T00:58:31.788Z,0.00
2018-04-28T00:59:31.843Z,0.00
2018-04-28T01:00:31.903Z,0.00
2018-04-28T01:01:31.979Z,0.00
2018-04-28T01:02:32.055Z,0.00
2018-04-28T01:03:32.104Z,0.00
2018-04-28T01:04:32.163Z,0.00
2018-04-28T01:05:32.236Z,0.00
2018-04-28T01:06:32.292Z,0.00
2018-04-28T01:07:32.516Z,0.00
2018-04-28T01:08:32.420Z,0.00
2018-04-28T01:09:32.488Z,0.00
2018-04-28T01:10:32.547Z,0.00
2018-04-28T01:11:32.616Z,0.00
2018-04-28T01:12:32.684Z,0.00
2018-04-28T01:13:32.748Z,0.00
2018-04-28T01:14:32.808Z,0.00
2018-04-28T01:15:32.871Z,0.00
2018-04-28T01:16:32.936Z,0.00
2018-04-28T01:17:33.013Z,0.00
2018-04-28T01:18:33.072Z,0.00
2018-04-28T01:19:33.128Z,0.00
2018-04-28T01:20:33.200Z,0.00
2018-04-28T01:21:33.258Z,0.00
2018-04-28T01:22:33.432Z,0.00
2018-04-28T01:23:33.384Z,0.00
2018-04-28T01:24:33.448Z,0.00
2018-04-28T01:25:33.513Z,0.00
2018-04-28T01:26:33.593Z,0.00
2018-04-28T01:27:33.676Z,0.00
2018-04-28T01:28:33.769Z,0.00
2018-04-28T01:29:33.772Z,0.00
2018-04-28T01:30:33.845Z,0.00
2018-04-28T01:31:33.909Z,0.00
2018-04-28T01:32:33.981Z,0.00
2018-04-28T01:33:34.040Z,0.00
2018-04-28T01:34:34.093Z,0.00
2018-04-28T01:35:34.157Z,0.00
2018-04-28T01:36:34.225Z,0.00
2018-04-28T01:37:34.301Z,0.00
2018-04-28T01:38:34.349Z,0.00
2018-04-28T01:39:34.417Z,0.00
2018-04-28T01:40:34.478Z,0.00
2018-04-28T01:41:34.541Z,0.00
2018-04-28T01:42:34.649Z,0.00
2018-04-28T01:43:34.677Z,0.00
2018-04-28T01:44:34.738Z,0.00
2018-04-28T01:45:34.797Z,0.00
2018-04-28T01:46:34.862Z,0.00
2018-04-28T01:47:34.965Z,0.00
2018-04-28T01:48:34.998Z,0.00
2018-04-28T01:49:35.058Z,0.00
2018-04-28T01:50:35.121Z,0.00
2018-04-28T01:51:35.185Z,0.00
2018-04-28T01:52:35.249Z,0.00
2018-04-28T01:53:35.477Z,0.00
2018-04-28T01:54:35.379Z,0.00
2018-04-28T01:55:35.441Z,0.00
2018-04-28T01:56:35.506Z,0.00
2018-04-28T01:57:35.570Z,0.00
2018-04-28T01:58:35.646Z,0.00
2018-04-28T01:59:35.702Z,0.00
2018-04-28T02:00:35.763Z,0.00
2018-04-28T02:01:35.827Z,0.00
2018-04-28T02:02:35.890Z,0.00
2018-04-28T02:03:35.962Z,0.00
2018-04-28T02:04:36.034Z,0.00
2018-04-28T02:05:36.083Z,0.00
2018-04-28T02:06:36.146Z,0.00
2018-04-28T02:07:36.214Z,0.00
2018-04-28T02:08:36.291Z,0.00
2018-04-28T02:09:36.347Z,0.00
2018-04-28T02:10:36.403Z,0.00
2018-04-28T02:11:36.471Z,0.00
2018-04-28T02:12:36.535Z,0.00
2018-04-28T02:13:36.608Z,0.00
2018-04-28T02:14:36.667Z,0.00
2018-04-28T02:15:36.730Z,0.00
2018-04-28T02:16:36.791Z,0.00
2018-04-28T02:17:36.855Z,0.00
2018-04-28T02:18:36.922Z,0.00
2018-04-28T02:19:36.987Z,0.00
2018-04-28T02:20:37.048Z,0.00
2018-04-28T02:21:37.111Z,0.00
2018-04-28T02:22:37.175Z,0.00
2018-04-28T02:23:37.251Z,0.00
2018-04-28T02:24:37.303Z,0.00
2018-04-28T02:25:37.367Z,0.00
2018-04-28T02:26:37.431Z,0.00
2018-04-28T02:27:37.499Z,0.00
2018-04-28T02:28:37.568Z,0.00
2018-04-28T02:29:37.631Z,0.00
2018-04-28T02:30:37.687Z,0.00
2018-04-28T02:31:37.752Z,0.00
2018-04-28T02:32:37.816Z,0.00
2018-04-28T02:33:37.884Z,0.00
2018-04-28T02:34:38.076Z,0.00
2018-04-28T02:35:38.004Z,0.00
2018-04-28T02:36:38.072Z,0.00
2018-04-28T02:37:38.136Z,0.00
2018-04-28T02:38:38.312Z,0.00
2018-04-28T02:39:38.263Z,0.00
2018-04-28T02:40:38.331Z,0.00
2018-04-28T02:41:38.392Z,0.00
2018-04-28T02:42:38.456Z,0.00
2018-04-28T02:43:38.528Z,0.00
2018-04-28T02:44:38.595Z,0.00
2018-04-28T02:45:38.648Z,0.00
2018-04-28T02:46:38.712Z,0.00
2018-04-28T02:47:38.777Z,0.00
2018-04-28T02:48:38.849Z,0.00
2018-04-28T02:49:38.909Z,0.00
2018-04-28T02:50:38.968Z,0.00
2018-04-28T02:51:39.037Z,0.00
2018-04-28T02:52:39.102Z,0.00
2018-04-28T02:53:39.172Z,0.00
2018-04-28T02:54:39.232Z,0.00
2018-04-28T02:55:39.289Z,0.00
2018-04-28T02:56:39.356Z,0.00
2018-04-28T02:57:39.417Z,0.00
2018-04-28T02:58:39.491Z,0.00
2018-04-28T02:59:39.553Z,0.00
2018-04-28T03:00:39.609Z,0.00
2018-04-28T03:01:39.675Z,0.00
2018-04-28T03:02:39.741Z,0.00
2018-04-28T03:03:39.808Z,0.00
2018-04-28T03:04:39.873Z,0.00
2018-04-28T03:05:39.929Z,0.00
2018-04-28T03:06:39.993Z,0.00
2018-04-28T03:07:40.058Z,0.00
2018-04-28T03:08:40.279Z,0.00
2018-04-28T03:09:40.185Z,0.00
2018-04-28T03:10:40.249Z,0.00
2018-04-28T03:11:40.314Z,0.00
2018-04-28T03:12:40.378Z,0.00
2018-04-28T03:13:40.455Z,0.00
2018-04-28T03:14:40.510Z,0.00
2018-04-28T03:15:40.566Z,0.00
2018-04-28T03:16:40.635Z,0.00
2018-04-28T03:17:40.697Z,0.00
2018-04-28T03:18:40.765Z,0.00
2018-04-28T03:19:40.829Z,0.00
2018-04-28T03:20:40.886Z,0.00
2018-04-28T03:21:40.957Z,0.00
2018-04-28T03:22:41.014Z,0.00
2018-04-28T03:23:41.100Z,0.00
2018-04-28T03:24:41.146Z,0.00
2018-04-28T03:25:41.206Z,0.00
2018-04-28T03:26:41.270Z,0.00
2018-04-28T03:27:41.334Z,0.00
2018-04-28T03:28:41.402Z,0.00
2018-04-28T03:29:41.470Z,0.00
2018-04-28T03:30:41.526Z,0.00
2018-04-28T03:31:41.590Z,0.00
2018-04-28T03:32:41.654Z,0.00
2018-04-28T03:33:41.722Z,0.00
2018-04-28T03:34:41.786Z,0.00
2018-04-28T03:35:41.842Z,0.00
2018-04-28T03:36:41.911Z,0.00
2018-04-28T03:37:41.970Z,0.00
2018-04-28T03:38:42.042Z,0.00
2018-04-28T03:39:42.106Z,0.00
2018-04-28T03:40:42.163Z,0.00
2018-04-28T03:41:42.226Z,0.00
2018-04-28T03:42:42.290Z,0.00
2018-04-28T03:43:42.502Z,0.00
2018-04-28T03:44:42.419Z,0.00
2018-04-28T03:45:42.482Z,0.00
2018-04-28T03:46:42.542Z,0.00
2018-04-28T03:47:42.610Z,0.00
2018-04-28T03:48:42.688Z,0.00
2018-04-28T03:49:42.743Z,0.00
2018-04-28T03:50:42.798Z,0.00
2018-04-28T03:51:42.862Z,0.00
2018-04-28T03:52:42.927Z,0.00
2018-04-28T03:53:42.998Z,0.00
2018-04-28T03:54:43.062Z,0.00
2018-04-28T03:55:43.118Z,0.00
2018-04-28T03:56:43.182Z,0.00
2018-04-28T03:57:43.274Z,0.00
2018-04-28T03:58:43.476Z,0.00
2018-04-28T03:59:43.378Z,0.00
2018-04-28T04:00:43.441Z,0.00
2018-04-28T04:01:43.498Z,0.00
2018-04-28T04:02:43.567Z,0.00
2018-04-28T04:03:43.634Z,0.00
2018-04-28T04:04:43.704Z,0.00
2018-04-28T04:05:43.755Z,0.00
2018-04-28T04:06:43.819Z,0.00
2018-04-28T04:07:43.882Z,0.00
2018-04-28T04:08:43.954Z,0.00
2018-04-28T04:09:44.020Z,0.00
2018-04-28T04:10:44.079Z,0.00
2018-04-28T04:11:44.138Z,0.00
2018-04-28T04:12:44.199Z,0.00
2018-04-28T04:13:44.282Z,5.63
2018-04-28T04:14:44.327Z,5.63
2018-04-28T04:15:44.391Z,5.63
2018-04-28T04:16:44.455Z,5.63
2018-04-28T04:17:44.523Z,5.63
2018-04-28T04:18:44.591Z,5.63
2018-04-28T04:19:44.659Z,11.25
2018-04-28T04:20:44.711Z,11.25
2018-04-28T04:21:44.775Z,11.25
2018-04-28T04:22:44.840Z,11.25
2018-04-28T04:23:44.907Z,16.88
2018-04-28T04:24:44.971Z,16.88
2018-04-28T04:25:45.027Z,16.88
2018-04-28T04:26:45.095Z,16.88
2018-04-28T04:27:45.155Z,16.88
2018-04-28T04:28:45.232Z,16.88
2018-04-28T04:29:45.284Z,16.88
2018-04-28T04:30:45.347Z,22.50
2018-04-28T04:31:45.411Z,22.50
2018-04-28T04:32:45.476Z,22.50
2018-04-28T04:33:45.555Z,28.13
2018-04-28T04:34:45.611Z,28.13
2018-04-28T04:35:45.673Z,28.13
2018-04-28T04:36:45.732Z,28.13
2018-04-28T04:37:45.876Z,33.75
2018-04-28T04:38:45.867Z,39.38
2018-04-28T04:39:45.928Z,39.38
2018-04-28T04:40:45.988Z,39.38
2018-04-28T04:41:46.052Z,39.38
2018-04-28T04:42:46.116Z,39.38
2018-04-28T04:43:46.288Z,45.00
2018-04-28T04:44:46.584Z,50.63
2018-04-28T04:45:46.308Z,50.63
2018-04-28T04:46:46.368Z,50.63
2018-04-28T04:47:46.436Z,50.63
2018-04-28T04:48:46.504Z,50.63
2018-04-28T04:49:46.568Z,50.63
2018-04-28T04:50:46.628Z,50.63
2018-04-28T04:51:46.689Z,56.25
2018-04-28T04:52:46.752Z,56.25
2018-04-28T04:53:46.825Z,56.25
2018-04-28T04:54:46.891Z,56.25
2018-04-28T04:55:46.945Z,61.88
2018-04-28T04:56:47.008Z,73.13
2018-04-28T04:57:47.073Z,73.13
2018-04-28T04:58:47.305Z,78.75
2018-04-28T04:59:47.202Z,78.75
2018-04-28T05:00:47.268Z,78.75
2018-04-28T05:01:47.329Z,84.38
2018-04-28T05:02:47.397Z,78.75
2018-04-28T05:03:47.469Z,78.75
2018-04-28T05:04:47.533Z,73.13
2018-04-28T05:05:47.585Z,73.13
2018-04-28T05:06:47.668Z,78.75
2018-04-28T05:07:47.713Z,78.75
2018-04-28T05:08:47.788Z,84.38
2018-04-28T05:09:49.825Z,84.38
2018-04-28T05:10:47.905Z,90.00
2018-04-28T05:11:47.974Z,84.38
2018-04-28T05:12:48.058Z,78.75
2018-04-28T05:13:48.101Z,73.13
2018-04-28T05:14:48.319Z,73.13
2018-04-28T05:15:48.249Z,73.13
2018-04-28T05:16:48.293Z,78.75
2018-04-28T05:17:48.358Z,84.38
2018-04-28T05:18:48.429Z,84.38
2018-04-28T05:19:48.494Z,84.38
2018-04-28T05:20:48.569Z,90.00
2018-04-28T05:21:48.614Z,90.00
2018-04-28T05:22:48.698Z,90.00
2018-04-28T05:23:48.754Z,90.00
2018-04-28T05:24:48.826Z,90.00
2018-04-28T05:25:48.882Z,95.63
2018-04-28T05:26:48.942Z,101.25
2018-04-28T05:27:49.001Z,101.25
2018-04-28T05:28:49.066Z,101.25
2018-04-28T05:29:49.150Z,101.25
2018-04-28T05:30:49.198Z,95.63
2018-04-28T05:31:49.258Z,90.00
2018-04-28T05:32:49.322Z,90.00
2018-04-28T05:33:49.391Z,78.75
2018-04-28T05:34:49.461Z,73.13
2018-04-28T05:35:49.522Z,73.13
2018-04-28T05:36:49.579Z,73.13
2018-04-28T05:37:49.643Z,73.13
2018-04-28T05:38:49.707Z,78.75
2018-04-28T05:39:49.774Z,78.75
2018-04-28T05:40:49.847Z,78.75
2018-04-28T05:41:49.902Z,78.75
2018-04-28T05:42:49.971Z,73.13
2018-04-28T05:43:50.035Z,73.13
2018-04-28T05:44:50.251Z,67.50
2018-04-28T05:45:50.159Z,61.88
2018-04-28T05:46:50.223Z,73.13
2018-04-28T05:47:50.287Z,84.38
2018-04-28T05:48:50.355Z,90.00
2018-04-28T05:49:50.431Z,90.00
2018-04-28T05:50:50.495Z,90.00
2018-04-28T05:51:50.543Z,90.00
2018-04-28T05:52:50.620Z,84.38
2018-04-28T05:53:50.675Z,78.75
2018-04-28T05:54:50.967Z,78.75
2018-04-28T05:55:50.815Z,84.38
2018-04-28T05:56:50.872Z,95.63
2018-04-28T05:57:50.990Z,112.50
2018-04-28T05:58:51.000Z,135.00
2018-04-28T05:59:51.120Z,146.25
2018-04-28T06:00:51.140Z,157.50
2018-04-28T06:01:51.196Z,157.50
2018-04-28T06:02:51.259Z,163.13
2018-04-28T06:03:51.324Z,163.13
2018-04-28T06:04:51.401Z,157.50
2018-04-28T06:05:51.460Z,157.50
2018-04-28T06:06:51.516Z,163.13
2018-04-28T06:07:51.584Z,157.50
2018-04-28T06:08:51.660Z,151.88
2018-04-28T06:09:51.721Z,146.25
2018-04-28T06:10:51.785Z,163.13
2018-04-28T06:11:51.836Z,168.75
2018-04-28T06:12:51.908Z,180.00
2018-04-28T06:13:51.972Z,185.63
2018-04-28T06:14:52.057Z,191.25
2018-04-28T06:15:52.108Z,191.25
2018-04-28T06:16:52.173Z,174.38
2018-04-28T06:17:52.233Z,151.88
2018-04-28T06:18:52.296Z,135.00
2018-04-28T06:19:52.579Z,140.63
2018-04-28T06:20:52.433Z,146.25
2018-04-28T06:21:52.493Z,151.88
2018-04-28T06:22:52.557Z,151.88
2018-04-28T06:23:52.622Z,151.88
2018-04-28T06:24:52.705Z,146.25
2018-04-28T06:25:52.811Z,151.88
2018-04-28T06:26:52.869Z,151.88
2018-04-28T06:27:52.988Z,151.88
2018-04-28T06:28:53.005Z,151.88
2018-04-28T06:29:53.037Z,146.25
2018-04-28T06:30:53.342Z,146.25
2018-04-28T06:31:53.153Z,151.88
2018-04-28T06:32:53.453Z,157.50
2018-04-28T06:33:53.296Z,157.50
2018-04-28T06:34:53.669Z,151.88
2018-04-28T06:35:53.514Z,157.50
2018-04-28T06:36:53.477Z,174.38
2018-04-28T06:37:53.624Z,180.00
2018-04-28T06:38:53.673Z,185.63
2018-04-28T06:39:53.746Z,185.63
2018-04-28T06:40:54.189Z,180.00
2018-04-28T06:41:53.889Z,180.00
2018-04-28T06:42:53.865Z,191.25
2018-04-28T06:43:54.049Z,196.88
2018-04-28T06:44:54.093Z,196.88
2018-04-28T06:45:55.334Z,202.50
2018-04-28T06:46:54.211Z,202.50
2018-04-28T06:47:54.225Z,196.88
2018-04-28T06:48:54.261Z,185.63
2018-04-28T06:49:54.485Z,174.38
2018-04-28T06:50:54.438Z,168.75
2018-04-28T06:51:54.554Z,185.63
2018-04-28T06:52:54.521Z,185.63
2018-04-28T06:53:54.653Z,185.63
2018-04-28T06:54:54.661Z,185.63
2018-04-28T06:55:54.789Z,180.00
2018-04-28T06:56:54.874Z,174.38
2018-04-28T06:57:54.850Z,168.75
2018-04-28T06:58:54.902Z,168.75
2018-04-28T06:59:54.986Z,163.13
2018-04-28T07:00:55.046Z,163.13
2018-04-28T07:01:55.098Z,168.75
2018-04-28T07:02:55.173Z,168.75
2018-04-28T07:03:55.258Z,163.13
2018-04-28T07:04:55.322Z,168.75
2018-04-28T07:05:55.726Z,168.75
2018-04-28T07:06:55.434Z,163.13
2018-04-28T07:07:55.494Z,157.50
2018-04-28T07:08:55.602Z,151.88
2018-04-28T07:09:55.635Z,151.88
2018-04-28T07:10:55.718Z,146.25
2018-04-28T07:11:55.770Z,151.88
2018-04-28T07:12:55.823Z,140.63
2018-04-28T07:13:55.882Z,135.00
2018-04-28T07:14:55.950Z,135.00
2018-04-28T07:15:56.028Z,135.00
2018-04-28T07:16:56.391Z,135.00
2018-04-28T07:17:56.159Z,140.63
2018-04-28T07:18:56.227Z,140.63
2018-04-28T07:19:56.280Z,140.63
2018-04-28T07:20:56.430Z,151.88
2018-04-28T07:21:56.663Z,146.25
2018-04-28T07:22:56.915Z,140.63
2018-04-28T07:23:56.559Z,140.63
2018-04-28T07:24:56.611Z,135.00
2018-04-28T07:25:56.674Z,140.63
2018-04-28T07:26:56.794Z,146.25
2018-04-28T07:27:56.840Z,151.88
2018-04-28T07:28:56.874Z,168.75
2018-04-28T07:29:56.959Z,168.75
2018-04-28T07:30:57.003Z,174.38
2018-04-28T07:31:57.231Z,180.00
2018-04-28T07:32:57.215Z,185.63
2018-04-28T07:33:57.851Z,202.50
2018-04-28T07:34:57.327Z,196.88
2018-04-28T07:35:57.452Z,202.50
2018-04-28T07:36:57.427Z,196.88
2018-04-28T07:37:57.488Z,191.25
2018-04-28T07:38:57.543Z,185.63
2018-04-28T07:39:57.600Z,185.63
2018-04-28T07:40:57.664Z,191.25
2018-04-28T07:41:57.744Z,185.63
2018-04-28T07:42:57.804Z,180.00
2018-04-28T07:43:57.848Z,185.63
2018-04-28T07:44:57.936Z,180.00
2018-04-28T07:45:57.988Z,180.00
2018-04-28T07:46:58.096Z,191.25
2018-04-28T07:47:58.332Z,196.88
2018-04-28T07:48:58.356Z,196.88
2018-04-28T07:49:58.248Z,208.13
2018-04-28T07:50:58.661Z,219.38
2018-04-28T07:51:58.393Z,230.63
2018-04-28T07:52:58.484Z,253.13
2018-04-28T07:53:58.618Z,286.88
2018-04-28T07:54:58.669Z,315.00
2018-04-28T07:55:58.711Z,337.50
2018-04-28T07:56:58.896Z,360.00
2018-04-28T07:57:59.589Z,343.13
2018-04-28T07:58:58.880Z,365.63
2018-04-28T07:59:58.941Z,388.13
2018-04-28T08:00:59.059Z,388.13
2018-04-28T08:01:59.061Z,427.50
2018-04-28T08:02:59.330Z,405.00
2018-04-28T08:03:59.861Z,410.63
2018-04-28T08:04:59.441Z,433.13
2018-04-28T08:05:59.353Z,433.13
2018-04-28T08:06:59.455Z,416.25
2018-04-28T08:08:01.042Z,444.38
2018-04-28T08:08:59.545Z,427.50
2018-04-28T08:09:59.689Z,444.38
2018-04-28T08:10:59.673Z,438.75
2018-04-28T08:11:59.702Z,433.13
2018-04-28T08:12:59.778Z,427.50
2018-04-28T08:13:59.965Z,421.88
2018-04-28T08:14:59.901Z,461.25
2018-04-28T08:15:59.970Z,466.88
2018-04-28T08:17:00.042Z,511.88
2018-04-28T08:18:00.110Z,438.75
2018-04-28T08:19:00.186Z,421.88
2018-04-28T08:20:00.241Z,466.88
2018-04-28T08:21:00.313Z,506.25
2018-04-28T08:22:00.391Z,534.38
2018-04-28T08:23:00.443Z,528.75
2018-04-28T08:24:00.522Z,551.25
2018-04-28T08:25:00.600Z,601.88
2018-04-28T08:26:00.645Z,663.75
2018-04-28T08:27:00.721Z,1001.25
2018-04-28T08:28:00.782Z,810.00
2018-04-28T08:29:00.868Z,1102.50
2018-04-28T08:30:00.954Z,871.88
2018-04-28T08:31:00.990Z,1035.00
2018-04-28T08:32:01.059Z,703.13
2018-04-28T08:33:01.142Z,793.13
2018-04-28T08:34:01.302Z,658.13
2018-04-28T08:35:01.262Z,793.13
2018-04-28T08:36:01.334Z,821.25
2018-04-28T08:37:01.409Z,883.13
2018-04-28T08:38:01.490Z,855.00
2018-04-28T08:39:01.550Z,765.00
2018-04-28T08:40:01.626Z,703.13
2018-04-28T08:41:01.687Z,630.00
2018-04-28T08:42:01.750Z,630.00
2018-04-28T08:43:01.823Z,652.50
2018-04-28T08:44:01.911Z,613.13
2018-04-28T08:45:01.968Z,607.50
2018-04-28T08:46:02.030Z,607.50
2018-04-28T08:47:02.106Z,613.13
2018-04-28T08:48:02.175Z,680.63
2018-04-28T08:49:02.277Z,658.13
2018-04-28T08:50:02.623Z,1321.88
2018-04-28T08:51:02.385Z,601.88
2018-04-28T08:52:02.456Z,517.50
2018-04-28T08:53:02.524Z,528.75
2018-04-28T08:54:02.595Z,573.75
2018-04-28T08:55:02.679Z,556.88
2018-04-28T08:56:02.755Z,556.88
2018-04-28T08:57:02.807Z,500.63
2018-04-28T08:58:02.875Z,489.38
2018-04-28T08:59:02.958Z,838.13
2018-04-28T09:00:03.027Z,528.75
2018-04-28T09:01:03.115Z,483.75
2018-04-28T09:02:03.163Z,472.50
2018-04-28T09:03:03.231Z,500.63
2018-04-28T09:04:03.299Z,461.25
2018-04-28T09:05:03.435Z,438.75
2018-04-28T09:06:03.435Z,427.50
2018-04-28T09:07:03.513Z,489.38
2018-04-28T09:08:03.579Z,585.00
2018-04-28T09:09:03.659Z,478.13
2018-04-28T09:10:03.802Z,534.38
2018-04-28T09:11:03.795Z,478.13
2018-04-28T09:12:03.860Z,450.00
2018-04-28T09:13:03.990Z,444.38
2018-04-28T09:14:04.028Z,427.50
2018-04-28T09:15:04.192Z,1186.88
2018-04-28T09:16:04.323Z,427.50
2018-04-28T09:17:04.319Z,455.63
2018-04-28T09:18:04.288Z,489.38
2018-04-28T09:19:04.444Z,382.50
2018-04-28T09:20:04.588Z,613.13
2018-04-28T09:21:04.572Z,371.25
2018-04-28T09:22:04.568Z,354.38
2018-04-28T09:23:04.628Z,343.13
2018-04-28T09:24:04.712Z,354.38
2018-04-28T09:25:04.780Z,286.88
2018-04-28T09:26:04.897Z,303.75
2018-04-28T09:27:04.912Z,315.00
2018-04-28T09:28:04.983Z,421.88
2018-04-28T09:29:05.052Z,360.00
2018-04-28T09:30:05.136Z,343.13
2018-04-28T09:31:05.193Z,315.00
2018-04-28T09:32:05.264Z,343.13
2018-04-28T09:33:05.428Z,388.13
2018-04-28T09:34:05.485Z,354.38
2018-04-28T09:35:05.476Z,320.63
2018-04-28T09:36:05.544Z,331.88
2018-04-28T09:37:05.616Z,309.38
2018-04-28T09:38:05.676Z,309.38
2018-04-28T09:39:05.744Z,298.13
2018-04-28T09:40:05.821Z,270.00
2018-04-28T09:41:05.912Z,253.13
2018-04-28T09:42:05.952Z,258.75
2018-04-28T09:43:06.021Z,258.75
2018-04-28T09:44:06.096Z,275.63
2018-04-28T09:45:06.425Z,315.00
2018-04-28T09:46:06.229Z,556.88
2018-04-28T09:47:06.301Z,466.88
2018-04-28T09:48:06.369Z,382.50
2018-04-28T09:49:06.441Z,444.38
2018-04-28T09:50:06.513Z,388.13
2018-04-28T09:51:06.585Z,348.75
2018-04-28T09:52:06.645Z,337.50
2018-04-28T09:53:06.717Z,348.75
2018-04-28T09:54:06.786Z,517.50
2018-04-28T09:55:06.868Z,354.38
2018-04-28T09:56:06.940Z,309.38
2018-04-28T09:57:06.997Z,281.25
2018-04-28T09:58:07.067Z,258.75
2018-04-28T09:59:07.137Z,258.75
2018-04-28T10:00:07.222Z,241.88
2018-04-28T10:01:07.277Z,247.50
2018-04-28T10:02:07.345Z,253.13
2018-04-28T10:03:07.413Z,253.13
2018-04-28T10:04:07.486Z,258.75
2018-04-28T10:05:07.561Z,264.38
2018-04-28T10:06:07.629Z,264.38
2018-04-28T10:07:07.693Z,258.75
2018-04-28T10:08:07.766Z,247.50
2018-04-28T10:09:07.834Z,236.25
2018-04-28T10:10:07.917Z,225.00
2018-04-28T10:11:07.978Z,208.13
2018-04-28T10:12:08.042Z,196.88
2018-04-28T10:13:08.110Z,185.63
2018-04-28T10:14:08.178Z,174.38
2018-04-28T10:15:08.270Z,168.75
2018-04-28T10:16:08.314Z,163.13
2018-04-28T10:17:08.389Z,157.50
2018-04-28T10:18:08.454Z,151.88
2018-04-28T10:19:08.523Z,157.50
2018-04-28T10:20:08.636Z,163.13
2018-04-28T10:21:08.667Z,168.75
2018-04-28T10:22:08.726Z,168.75
2018-04-28T10:23:08.794Z,168.75
2018-04-28T10:24:08.870Z,180.00
2018-04-28T10:25:08.938Z,180.00
2018-04-28T10:26:09.007Z,191.25
2018-04-28T10:27:09.071Z,196.88
2018-04-28T10:28:09.143Z,230.63
2018-04-28T10:29:09.206Z,230.63
2018-04-28T10:30:09.275Z,241.88
2018-04-28T10:31:09.499Z,236.25
2018-04-28T10:32:09.411Z,219.38
2018-04-28T10:33:09.478Z,219.38
2018-04-28T10:34:09.547Z,219.38
2018-04-28T10:35:09.617Z,225.00
2018-04-28T10:36:09.691Z,230.63
2018-04-28T10:37:09.759Z,230.63
2018-04-28T10:38:09.819Z,219.38
2018-04-28T10:39:09.887Z,208.13
2018-04-28T10:40:09.960Z,208.13
2018-04-28T10:41:10.031Z,196.88
2018-04-28T10:42:10.099Z,180.00
2018-04-28T10:43:10.163Z,180.00
2018-04-28T10:44:10.239Z,191.25
2018-04-28T10:45:10.299Z,185.63
2018-04-28T10:46:10.371Z,191.25
2018-04-28T10:47:10.439Z,191.25
2018-04-28T10:48:10.503Z,185.63
2018-04-28T10:49:10.572Z,168.75
2018-04-28T10:50:10.639Z,151.88
2018-04-28T10:51:10.715Z,146.25
2018-04-28T10:52:10.779Z,135.00
2018-04-28T10:53:10.843Z,129.38
2018-04-28T10:54:10.908Z,129.38
2018-04-28T10:55:10.976Z,129.38
2018-04-28T10:56:11.059Z,140.63
2018-04-28T10:57:11.124Z,163.13
2018-04-28T10:58:11.180Z,174.38
2018-04-28T10:59:11.247Z,196.88
2018-04-28T11:00:11.319Z,225.00
2018-04-28T11:01:11.540Z,230.63
2018-04-28T11:02:11.452Z,230.63
2018-04-28T11:03:11.520Z,230.63
2018-04-28T11:04:11.588Z,225.00
2018-04-28T11:05:11.656Z,208.13
2018-04-28T11:06:11.765Z,191.25
2018-04-28T11:07:11.796Z,168.75
2018-04-28T11:08:11.857Z,151.88
2018-04-28T11:09:11.928Z,146.25
2018-04-28T11:10:11.993Z,140.63
2018-04-28T11:11:12.069Z,140.63
2018-04-28T11:12:12.139Z,146.25
2018-04-28T11:13:12.242Z,157.50
2018-04-28T11:14:12.267Z,180.00
2018-04-28T11:15:12.336Z,208.13
2018-04-28T11:16:12.405Z,230.63
2018-04-28T11:17:12.477Z,241.88
2018-04-28T11:18:12.533Z,275.63
2018-04-28T11:19:12.609Z,264.38
2018-04-28T11:20:12.673Z,253.13
2018-04-28T11:21:12.750Z,264.38
2018-04-28T11:22:12.815Z,360.00
2018-04-28T11:23:12.874Z,348.75
2018-04-28T11:24:12.946Z,416.25
2018-04-28T11:25:13.010Z,427.50
2018-04-28T11:26:13.232Z,388.13
2018-04-28T11:27:13.145Z,365.63
2018-04-28T11:28:13.213Z,337.50
2018-04-28T11:29:13.281Z,450.00
2018-04-28T11:30:13.349Z,309.38
2018-04-28T11:31:13.425Z,292.50
2018-04-28T11:32:13.493Z,281.25
2018-04-28T11:33:13.558Z,281.25
2018-04-28T11:34:13.626Z,286.88
2018-04-28T11:35:13.694Z,292.50
2018-04-28T11:36:13.769Z,303.75
2018-04-28T11:37:13.838Z,331.88
2018-04-28T11:38:13.920Z,433.13
2018-04-28T11:39:13.970Z,348.75
2018-04-28T11:40:14.038Z,337.50
2018-04-28T11:41:14.130Z,337.50
2018-04-28T11:42:14.174Z,309.38
2018-04-28T11:43:14.242Z,292.50
2018-04-28T11:44:14.321Z,264.38
2018-04-28T11:45:14.381Z,258.75
2018-04-28T11:46:14.458Z,264.38
2018-04-28T11:47:14.525Z,270.00
2018-04-28T11:48:14.590Z,275.63
2018-04-28T11:49:14.654Z,286.88
2018-04-28T11:50:14.726Z,286.88
2018-04-28T11:51:14.802Z,281.25
2018-04-28T11:52:14.870Z,286.88
2018-04-28T11:53:14.938Z,286.88
2018-04-28T11:54:15.012Z,286.88
2018-04-28T11:55:15.071Z,303.75
2018-04-28T11:56:15.295Z,421.88
2018-04-28T11:57:15.215Z,371.25
2018-04-28T11:58:15.279Z,360.00
2018-04-28T11:59:15.420Z,360.00
2018-04-28T12:00:15.418Z,281.25
2018-04-28T12:01:15.507Z,264.38
2018-04-28T12:02:15.562Z,241.88
2018-04-28T12:03:15.622Z,241.88
2018-04-28T12:04:15.695Z,247.50
2018-04-28T12:05:15.840Z,253.13
2018-04-28T12:06:15.839Z,253.13
2018-04-28T12:07:15.907Z,247.50
2018-04-28T12:08:15.973Z,241.88
2018-04-28T12:09:16.040Z,241.88
2018-04-28T12:10:16.107Z,236.25
2018-04-28T12:11:16.199Z,225.00
2018-04-28T12:12:16.247Z,219.38
2018-04-28T12:13:16.314Z,236.25
2018-04-28T12:14:16.383Z,247.50
2018-04-28T12:15:16.455Z,270.00
2018-04-28T12:16:16.530Z,264.38
2018-04-28T12:17:16.623Z,264.38
2018-04-28T12:18:16.661Z,410.63
2018-04-28T12:19:16.727Z,410.63
2018-04-28T12:20:16.795Z,416.25
2018-04-28T12:21:16.871Z,270.00
2018-04-28T12:22:16.940Z,264.38
2018-04-28T12:23:17.007Z,264.38
2018-04-28T12:24:17.076Z,236.25
2018-04-28T12:25:17.147Z,219.38
2018-04-28T12:26:17.487Z,208.13
2018-04-28T12:27:17.279Z,208.13
2018-04-28T12:28:17.347Z,208.13
2018-04-28T12:29:17.437Z,202.50
2018-04-28T12:30:17.488Z,196.88
2018-04-28T12:31:17.559Z,191.25
2018-04-28T12:32:18.024Z,185.63
2018-04-28T12:33:19.467Z,185.63
2018-04-28T12:34:17.760Z,185.63
2018-04-28T12:35:17.837Z,185.63
2018-04-28T12:36:17.899Z,185.63
2018-04-28T12:37:17.996Z,191.25
2018-04-28T12:38:18.036Z,202.50
2018-04-28T12:39:18.104Z,219.38
2018-04-28T12:40:18.175Z,213.75
2018-04-28T12:41:18.248Z,230.63
2018-04-28T12:42:18.416Z,236.25
2018-04-28T12:43:18.379Z,241.88
2018-04-28T12:44:18.716Z,247.50
2018-04-28T12:45:18.524Z,247.50
2018-04-28T12:46:18.584Z,241.88
2018-04-28T12:47:18.659Z,247.50
2018-04-28T12:48:18.735Z,247.50